Valencia Aeropuerto, Spain

11:25 AM CEST on June 30, 2015 (GMT +0200)
Campolivar | | Change Station
CLOSE
Current Station
Personal Weather Station
Location: Paterna, COMUNIDAD VALENCIANA
Elevation: 299 ft
Nearby Weather Stations
Active Advisory: Extreme high temperature

Elev 299 ft 39.53 °N, 0.44 °W | Updated 0 second ago

Clear
Clear
88.3 °F
Feels Like 87 °F
N
1.0
Wind Variable Wind from South
Gusts 4.0 mph

Today
High -- | Low -- °F
--% Chance of Precip.
Yesterday
High -- | Low -- °F
Precip. -- in
6:37 AM 9:33 PM
Waxing Gibbous, 96% visible
Pressure 30.06 in
Visibility -9999.0 miles
Clouds
Heat Index 87 °F
Dew Point 57 °F
Humidity 35%
Rainfall in
Snow Depth Not available.
UV Not available.
Pollen Not available.
Air Quality Not available.
Flu Activity Not available.
METAR LEBT 300800Z AUTO VRB01KT CAVOK 27/12 Q1018

More Conditions Fewer Conditions

Pressure 30.06 in
Visibility -9999.0 miles
Clouds
Heat Index 87 °F
Dew Point 57 °F
Humidity 35%
Rainfall in
Snow Depth Not available.
UV Not available.
Pollen Not available.
Air Quality Not available.
Flu Activity Not available.
METAR LEBT 300800Z AUTO VRB01KT CAVOK 27/12 Q1018

More Conditions Fewer Conditions

10-Day Weather Forecast

×

Almanac

Astronomy

Jun. 30, 2015 Rise Set
Actual Time
Civil Twilight
Nautical Twilight
Astronomical Twilight
Moon
Length of Visible Light
Length of Day
Tomorrow will be .
, % of the Moon is Illuminated

Today's Extremes

Country Highs Country Lows

Community

WunderPhotos

Upload Photos

1,833,983 photos uploaded!

WunderBlogs® & News

Nearby

Air Quality

  Air Quality AQ Index Pollutant
Not available.

Snow Depth

Station Depth Elevation

Earthquake Activity

City Distance Mag. Time & Date
Minimum magnitude displayed is 2.5.

Coastal Water Temperatures

Place Temperature

Stations

Nearby Weather Stations

Station Location Temp. Windchill Dew Point Humidity Wind Precip. Elev Updated Type